Terminal Aerodrome Forecast
Issued by NWS New Orleans/Baton Rouge, LA

Home | Current Version | Previous Version | Text Only | Print | Product List | Glossary On
Versions: 1 2 3 4 5 6 7 8 9 10 11 12 13
000
FTUS44 KLIX 040550
TAFBTR
TAF
KBTR 040550Z 0406/0506 10014KT P6SM -RA BKN018 OVC027
      TEMPO 0407/0409 2SM +TSRA OVC010CB
     FM040900 10008KT 5SM -RA OVC010
      TEMPO 0409/0413 3SM SHRA OVC006
     FM041300 07005KT 3SM -RA OVC004
     FM042100 35006KT 3SM SHRA OVC004=

USA.gov is the U.S. government's official web portal to all federal, state and local government web resources and services.